Erbach Airport EDNE

Flugplatz Daten

Name: Erbach Airport

Ident: EDNE

Lat: 48,34222031

Long: 9,916110992

Platzhöhe: 1558 ft

IataCode:

City: Erbach

Metar

2021/07/02 20:15
K63S 022015Z 16008KT 090V180 10SM CLR 31/09 A2986 RMK A01 RUNWAYS 01/19 CLOSED FROM 0700 WEDNESDAY 6/30/21 UNTIL 1700 FRIDAY 7/2/21.

Taf

Gewünschte Webcam nicht vorhanden? Dann fügen Sie eine hinzu. Sie wird dann so schnell wie möglich freigeschaltet
Url: Title: